createdAt,value
2018-03-31T00:01:16.885Z,3.73
2018-03-31T00:03:44.716Z,3.71
2018-03-31T00:06:12.418Z,3.66
2018-03-31T00:08:40.653Z,3.60
2018-03-31T00:11:09.336Z,3.64
2018-03-31T00:13:37.210Z,3.70
2018-03-31T00:16:05.533Z,3.58
2018-03-31T00:18:33.604Z,3.55
2018-03-31T00:21:01.432Z,3.55
2018-03-31T00:23:29.289Z,3.51
2018-03-31T00:25:57.197Z,3.43
2018-03-31T00:28:24.861Z,3.43
2018-03-31T00:30:52.515Z,3.37
2018-03-31T00:33:20.186Z,3.36
2018-03-31T00:35:47.849Z,3.44
2018-03-31T00:38:15.666Z,3.46
2018-03-31T00:40:43.789Z,3.38
2018-03-31T00:43:11.622Z,3.30
2018-03-31T00:45:39.522Z,3.22
2018-03-31T00:48:07.240Z,3.22
2018-03-31T00:50:34.839Z,3.23
2018-03-31T00:53:03.042Z,3.09
2018-03-31T00:55:30.804Z,3.19
2018-03-31T00:57:58.631Z,3.09
2018-03-31T01:00:26.659Z,3.17
2018-03-31T01:02:54.376Z,3.12
2018-03-31T01:05:22.211Z,3.14
2018-03-31T01:07:50.320Z,3.02
2018-03-31T01:10:17.979Z,3.01
2018-03-31T01:12:45.856Z,2.96
2018-03-31T01:15:13.342Z,2.98
2018-03-31T01:17:40.967Z,2.90
2018-03-31T01:20:08.885Z,2.90
2018-03-31T01:22:36.849Z,2.88
2018-03-31T01:25:04.562Z,2.86
2018-03-31T01:27:32.435Z,2.83
2018-03-31T01:30:00.089Z,2.87
2018-03-31T01:32:27.911Z,2.73
2018-03-31T01:34:55.652Z,2.77
2018-03-31T01:37:23.322Z,2.72
2018-03-31T01:39:50.940Z,2.70
2018-03-31T01:42:18.612Z,2.68
2018-03-31T01:44:46.192Z,2.57
2018-03-31T01:47:14.149Z,2.57
2018-03-31T01:49:41.847Z,2.65
2018-03-31T01:52:09.662Z,2.61
2018-03-31T01:54:37.528Z,2.66
2018-03-31T01:57:05.194Z,2.47
2018-03-31T01:59:33.046Z,2.53
2018-03-31T02:02:00.721Z,2.62
2018-03-31T02:04:28.379Z,2.51
2018-03-31T02:06:56.205Z,2.53
2018-03-31T02:09:23.908Z,2.58
2018-03-31T02:11:51.778Z,2.51
2018-03-31T02:14:19.605Z,2.49
2018-03-31T02:16:47.569Z,2.33
2018-03-31T02:19:15.244Z,2.41
2018-03-31T02:21:42.826Z,2.46
2018-03-31T02:24:10.640Z,2.41
2018-03-31T02:26:38.755Z,2.35
2018-03-31T02:29:06.594Z,2.39
2018-03-31T02:31:34.569Z,2.47
2018-03-31T02:34:02.220Z,2.40
2018-03-31T02:36:30.095Z,2.44
2018-03-31T02:38:57.692Z,2.31
2018-03-31T02:41:25.774Z,2.27
2018-03-31T02:43:54.043Z,2.23
2018-03-31T02:46:22.106Z,2.20
2018-03-31T02:48:50.022Z,2.36
2018-03-31T02:51:17.816Z,2.25
2018-03-31T02:53:45.904Z,2.17
2018-03-31T02:56:13.568Z,2.15
2018-03-31T02:58:41.439Z,2.26
2018-03-31T03:01:09.680Z,2.17
2018-03-31T03:03:37.590Z,2.16
2018-03-31T03:06:05.461Z,2.07
2018-03-31T03:08:33.174Z,2.23
2018-03-31T03:11:00.778Z,2.08
2018-03-31T03:13:28.588Z,2.07
2018-03-31T03:15:56.305Z,2.03
2018-03-31T03:18:23.965Z,2.15
2018-03-31T03:20:51.624Z,2.20
2018-03-31T03:23:19.497Z,2.20
2018-03-31T03:25:47.151Z,2.27
2018-03-31T03:28:15.024Z,2.26
2018-03-31T03:30:42.839Z,2.19
2018-03-31T03:33:10.830Z,2.19
2018-03-31T03:35:38.622Z,2.17
2018-03-31T03:38:06.287Z,2.15
2018-03-31T03:40:34.056Z,2.28
2018-03-31T03:43:02.608Z,2.35
2018-03-31T03:45:30.899Z,2.24
2018-03-31T03:47:58.945Z,2.35
2018-03-31T03:50:26.420Z,2.40
2018-03-31T03:52:54.302Z,2.34
2018-03-31T03:55:22.171Z,2.25
2018-03-31T03:57:49.982Z,2.27
2018-03-31T04:03:13.137Z,2.39
2018-03-31T04:05:40.513Z,2.38
2018-03-31T04:08:07.884Z,2.42
2018-03-31T04:10:35.240Z,2.31
2018-03-31T04:13:02.612Z,2.30
2018-03-31T04:15:30.090Z,2.44
2018-03-31T04:17:57.468Z,2.44
2018-03-31T04:20:24.860Z,2.33
2018-03-31T04:22:52.233Z,2.38
2018-03-31T04:25:19.666Z,2.41
2018-03-31T04:27:47.024Z,2.33
2018-03-31T04:30:14.448Z,2.28
2018-03-31T04:32:41.799Z,2.41
2018-03-31T04:35:09.570Z,2.58
2018-03-31T04:37:36.917Z,2.45
2018-03-31T04:40:04.313Z,2.53
2018-03-31T04:42:31.657Z,2.29
2018-03-31T04:44:59.047Z,2.47
2018-03-31T04:47:26.604Z,2.38
2018-03-31T04:49:54.389Z,2.65
2018-03-31T04:52:22.468Z,2.41
2018-03-31T04:54:49.810Z,2.48
2018-03-31T04:57:17.177Z,2.42
2018-03-31T04:59:44.768Z,2.38
2018-03-31T05:02:12.165Z,2.32
2018-03-31T05:04:39.832Z,2.53
2018-03-31T05:07:07.281Z,2.54
2018-03-31T05:09:34.645Z,2.40
2018-03-31T05:12:02.053Z,2.38
2018-03-31T05:14:29.757Z,2.39
2018-03-31T05:16:57.352Z,2.35
2018-03-31T05:19:24.794Z,2.51
2018-03-31T05:21:53.311Z,2.28
2018-03-31T05:24:21.025Z,2.35
2018-03-31T05:26:49.832Z,2.55
2018-03-31T05:29:18.257Z,2.43
2018-03-31T05:31:46.068Z,2.68
2018-03-31T05:34:14.257Z,2.70
2018-03-31T05:36:41.979Z,2.78
2018-03-31T05:39:10.417Z,2.55
2018-03-31T05:41:38.349Z,2.68
2018-03-31T05:44:06.637Z,2.80
2018-03-31T05:46:34.307Z,2.76
2018-03-31T05:49:01.679Z,2.73
2018-03-31T05:51:29.081Z,2.63
2018-03-31T05:53:56.556Z,2.71
2018-03-31T05:56:23.941Z,2.78
2018-03-31T05:58:51.431Z,2.50
2018-03-31T06:01:18.794Z,2.59
2018-03-31T06:03:46.168Z,2.64
2018-03-31T06:06:13.545Z,2.82
2018-03-31T06:08:41.052Z,2.74
2018-03-31T06:11:08.414Z,2.70
2018-03-31T06:13:35.953Z,2.62
2018-03-31T06:16:03.300Z,2.58
2018-03-31T06:18:30.660Z,2.52
2018-03-31T06:20:58.147Z,2.74
2018-03-31T06:23:25.539Z,2.61
2018-03-31T06:25:52.890Z,2.84
2018-03-31T06:28:20.424Z,2.83
2018-03-31T06:30:47.762Z,2.68
2018-03-31T06:33:15.125Z,2.68
2018-03-31T06:35:42.489Z,2.69
2018-03-31T06:38:10.093Z,2.66
2018-03-31T06:40:37.464Z,2.62
2018-03-31T06:43:04.809Z,2.80
2018-03-31T06:45:32.266Z,2.71
2018-03-31T06:47:59.606Z,2.84
2018-03-31T06:50:26.960Z,2.63
2018-03-31T06:52:54.292Z,2.66
2018-03-31T06:55:21.779Z,2.63
2018-03-31T06:57:49.331Z,2.69
2018-03-31T07:00:16.708Z,2.69
2018-03-31T07:02:44.048Z,2.86
2018-03-31T07:05:11.413Z,2.55
2018-03-31T07:07:38.833Z,2.71
2018-03-31T07:10:06.249Z,2.82
2018-03-31T07:12:33.625Z,2.85
2018-03-31T07:15:01.029Z,2.96
2018-03-31T07:17:28.426Z,2.81
2018-03-31T07:19:55.792Z,2.59
2018-03-31T07:22:23.170Z,2.85
2018-03-31T07:24:50.520Z,3.04
2018-03-31T07:27:18.085Z,2.78
2018-03-31T07:29:45.468Z,2.99
2018-03-31T07:32:12.939Z,3.00
2018-03-31T07:34:40.276Z,3.07
2018-03-31T07:37:07.753Z,2.87
2018-03-31T07:39:35.101Z,3.16
2018-03-31T07:42:02.508Z,3.17
2018-03-31T07:44:32.765Z,2.96
2018-03-31T07:47:00.144Z,3.17
2018-03-31T07:49:27.497Z,3.01
2018-03-31T07:51:54.919Z,3.09
2018-03-31T07:54:25.044Z,3.08
2018-03-31T07:56:52.433Z,3.29
2018-03-31T07:59:19.760Z,3.32
2018-03-31T08:01:47.165Z,3.44
2018-03-31T08:04:14.501Z,3.22
2018-03-31T08:06:41.926Z,3.19
2018-03-31T08:09:09.303Z,3.43
2018-03-31T08:11:36.712Z,3.41
2018-03-31T08:14:04.049Z,3.29
2018-03-31T08:16:31.450Z,3.69
2018-03-31T08:18:58.772Z,3.59
2018-03-31T08:21:26.232Z,3.80
2018-03-31T08:23:53.755Z,3.96
2018-03-31T08:26:21.130Z,3.98
2018-03-31T08:28:48.456Z,3.96
2018-03-31T08:31:15.847Z,4.20
2018-03-31T08:33:43.172Z,3.82
2018-03-31T08:36:10.577Z,4.15
2018-03-31T08:38:37.940Z,3.86
2018-03-31T08:41:05.330Z,4.27
2018-03-31T08:43:32.704Z,4.13
2018-03-31T08:46:00.126Z,3.95
2018-03-31T08:48:27.502Z,3.86
2018-03-31T08:50:54.896Z,3.99
2018-03-31T08:53:22.243Z,3.81
2018-03-31T08:55:49.704Z,3.86
2018-03-31T08:58:17.052Z,4.08
2018-03-31T09:00:44.425Z,4.03
2018-03-31T09:03:11.934Z,4.00
2018-03-31T09:05:39.411Z,3.99
2018-03-31T09:08:06.789Z,3.77
2018-03-31T09:10:34.132Z,3.98
2018-03-31T09:13:01.502Z,4.11
2018-03-31T09:15:28.859Z,4.37
2018-03-31T09:17:56.232Z,4.01
2018-03-31T09:20:23.818Z,4.10
2018-03-31T09:22:51.308Z,4.08
2018-03-31T09:25:18.648Z,4.09
2018-03-31T09:27:46.045Z,4.43
2018-03-31T09:30:13.397Z,4.33
2018-03-31T09:32:40.761Z,4.71
2018-03-31T09:35:08.120Z,4.43
2018-03-31T09:37:35.630Z,4.57
2018-03-31T09:40:03.024Z,4.48
2018-03-31T09:42:30.420Z,4.56
2018-03-31T09:44:57.841Z,4.63
2018-03-31T09:47:25.216Z,4.65
2018-03-31T09:49:52.621Z,4.33
2018-03-31T09:52:20.213Z,4.83
2018-03-31T09:54:47.572Z,4.42
2018-03-31T09:57:14.917Z,4.55
2018-03-31T09:59:42.329Z,4.72
2018-03-31T10:02:09.677Z,4.72
2018-03-31T10:04:43.520Z,4.54
2018-03-31T10:07:10.889Z,4.39
2018-03-31T10:09:38.300Z,4.58
2018-03-31T10:12:05.879Z,4.34
2018-03-31T10:14:33.268Z,4.09
2018-03-31T10:17:00.739Z,4.34
2018-03-31T10:19:28.116Z,4.23
2018-03-31T10:21:55.501Z,4.30
2018-03-31T10:24:22.973Z,4.18
2018-03-31T10:26:50.724Z,4.14
2018-03-31T10:29:18.154Z,4.47
2018-03-31T10:31:45.513Z,4.52
2018-03-31T10:34:12.840Z,4.52
2018-03-31T10:36:40.244Z,4.87
2018-03-31T10:39:07.768Z,5.01
2018-03-31T10:41:35.516Z,4.80
2018-03-31T10:44:02.865Z,5.04
2018-03-31T10:46:30.292Z,4.95
2018-03-31T10:48:57.612Z,4.89
2018-03-31T10:51:24.980Z,4.98
2018-03-31T10:53:52.343Z,4.62
2018-03-31T10:56:19.716Z,4.91
2018-03-31T10:58:47.097Z,4.68
2018-03-31T11:01:14.474Z,4.92
2018-03-31T11:03:41.836Z,4.65
2018-03-31T11:06:09.221Z,4.82
2018-03-31T11:08:36.572Z,5.10
2018-03-31T11:11:03.992Z,5.11
2018-03-31T11:13:31.373Z,5.23
2018-03-31T11:15:58.933Z,4.98
2018-03-31T11:18:26.341Z,4.85
2018-03-31T11:20:53.713Z,4.74
2018-03-31T11:23:21.056Z,4.98
2018-03-31T11:25:55.237Z,5.00
2018-03-31T11:28:22.620Z,5.07
2018-03-31T11:30:50.122Z,5.23
2018-03-31T11:33:17.466Z,5.39
2018-03-31T11:35:44.835Z,5.52
2018-03-31T11:38:12.216Z,5.36
2018-03-31T11:40:39.577Z,5.52
2018-03-31T11:43:07.061Z,5.52
2018-03-31T11:45:34.405Z,5.23
2018-03-31T11:48:01.770Z,5.58
2018-03-31T11:50:29.167Z,5.43
2018-03-31T11:52:56.564Z,5.50
2018-03-31T11:55:23.932Z,5.83
2018-03-31T11:57:51.284Z,5.87
2018-03-31T12:00:18.648Z,5.67
2018-03-31T12:02:46.004Z,5.84
2018-03-31T12:05:13.369Z,5.89
2018-03-31T12:07:40.773Z,5.56
2018-03-31T12:10:08.143Z,5.80
2018-03-31T12:12:35.504Z,5.86
2018-03-31T12:15:03.071Z,5.95
2018-03-31T12:17:30.447Z,6.30
2018-03-31T12:19:57.799Z,6.54
2018-03-31T12:22:25.209Z,6.12
2018-03-31T12:24:53.122Z,6.39
2018-03-31T12:27:20.492Z,6.05
2018-03-31T12:32:21.489Z,6.42
2018-03-31T12:34:48.933Z,6.53
2018-03-31T12:37:16.335Z,6.52
2018-03-31T12:39:43.780Z,6.23
2018-03-31T12:42:11.212Z,6.25
2018-03-31T12:44:38.850Z,6.59
2018-03-31T12:47:06.345Z,6.67
2018-03-31T12:49:33.749Z,6.60
2018-03-31T12:52:03.743Z,6.35
2018-03-31T12:54:31.542Z,6.47
2018-03-31T12:56:58.912Z,6.66
2018-03-31T12:59:27.004Z,6.42
2018-03-31T13:01:54.356Z,6.34
2018-03-31T13:04:21.735Z,6.38
2018-03-31T13:06:49.089Z,6.37
2018-03-31T13:09:16.476Z,6.27
2018-03-31T13:11:43.839Z,6.09
2018-03-31T13:14:11.253Z,6.17
2018-03-31T13:16:38.601Z,6.42
2018-03-31T13:19:05.971Z,6.39
2018-03-31T13:21:33.381Z,6.41
2018-03-31T13:24:00.812Z,6.17
2018-03-31T13:26:28.181Z,6.24
2018-03-31T13:28:55.565Z,6.42
2018-03-31T13:31:22.969Z,6.31
2018-03-31T13:33:50.361Z,6.31
2018-03-31T13:36:17.741Z,6.60
2018-03-31T13:38:45.140Z,6.43
2018-03-31T13:41:15.288Z,6.21
2018-03-31T13:43:42.633Z,6.44
2018-03-31T13:46:10.010Z,6.63
2018-03-31T13:48:37.400Z,6.48
2018-03-31T13:51:04.752Z,6.58
2018-03-31T13:53:32.085Z,6.28
2018-03-31T13:55:59.432Z,6.51
2018-03-31T13:58:26.773Z,6.52
2018-03-31T14:00:54.142Z,6.45
2018-03-31T14:03:21.523Z,6.17
2018-03-31T14:05:48.904Z,6.29
2018-03-31T14:08:19.038Z,6.14
2018-03-31T14:10:46.473Z,6.46
2018-03-31T14:13:20.257Z,6.30
2018-03-31T14:15:47.641Z,6.15
2018-03-31T14:18:14.973Z,6.31
2018-03-31T14:20:42.573Z,6.12
2018-03-31T14:23:09.973Z,5.98
2018-03-31T14:25:37.436Z,6.19
2018-03-31T14:28:04.764Z,6.24
2018-03-31T14:30:32.136Z,6.10
2018-03-31T14:32:59.532Z,6.16
2018-03-31T14:35:26.982Z,6.03
2018-03-31T14:37:54.446Z,5.97
2018-03-31T14:40:21.832Z,6.00
2018-03-31T14:42:49.180Z,6.16
2018-03-31T14:45:16.559Z,6.21
2018-03-31T14:47:43.925Z,6.09
2018-03-31T14:50:11.320Z,6.16
2018-03-31T14:52:38.933Z,6.03
2018-03-31T14:55:06.350Z,5.94
2018-03-31T14:57:33.713Z,6.03
2018-03-31T15:00:01.212Z,5.93
2018-03-31T15:02:28.656Z,5.86
2018-03-31T15:04:56.061Z,6.06
2018-03-31T15:07:23.433Z,5.95
2018-03-31T15:09:50.778Z,6.01
2018-03-31T15:12:18.116Z,6.05
2018-03-31T15:14:45.451Z,6.23
2018-03-31T15:17:12.809Z,6.10
2018-03-31T15:19:40.136Z,6.01
2018-03-31T15:22:07.620Z,6.38
2018-03-31T15:24:35.003Z,6.37
2018-03-31T15:27:02.434Z,6.26
2018-03-31T15:29:29.946Z,6.11
2018-03-31T15:31:57.374Z,6.23
2018-03-31T15:34:24.749Z,6.23
2018-03-31T15:36:52.145Z,6.13
2018-03-31T15:39:19.635Z,6.05
2018-03-31T15:41:46.980Z,6.23
2018-03-31T15:44:14.334Z,6.15
2018-03-31T15:46:41.762Z,6.12
2018-03-31T15:49:09.096Z,6.10
2018-03-31T15:51:36.462Z,6.08
2018-03-31T15:54:03.825Z,6.13
2018-03-31T15:56:31.178Z,6.12
2018-03-31T15:58:58.542Z,6.07
2018-03-31T16:01:25.950Z,6.03
2018-03-31T16:03:53.411Z,6.09
2018-03-31T16:06:20.764Z,5.95
2018-03-31T16:08:48.132Z,5.95
2018-03-31T16:11:15.584Z,6.14
2018-03-31T16:13:43.241Z,5.94
2018-03-31T16:16:10.774Z,6.21
2018-03-31T16:18:38.150Z,6.29
2018-03-31T16:21:05.508Z,6.19
2018-03-31T16:23:32.897Z,6.09
2018-03-31T16:26:00.499Z,6.18
2018-03-31T16:28:28.062Z,6.16
2018-03-31T16:30:55.425Z,6.05
2018-03-31T16:33:22.760Z,6.12
2018-03-31T16:35:50.108Z,5.99
2018-03-31T16:38:17.481Z,6.01
2018-03-31T16:40:44.833Z,5.88
2018-03-31T16:43:12.201Z,5.99
2018-03-31T16:45:39.563Z,5.91
2018-03-31T16:48:06.908Z,6.11
2018-03-31T16:50:34.245Z,6.04
2018-03-31T16:53:01.598Z,6.03
2018-03-31T16:55:28.964Z,5.86
2018-03-31T16:57:56.607Z,5.96
2018-03-31T17:00:24.267Z,5.90
2018-03-31T17:02:51.688Z,5.98
2018-03-31T17:05:19.134Z,5.85
2018-03-31T17:07:46.570Z,5.98
2018-03-31T17:10:13.981Z,5.92
2018-03-31T17:12:41.341Z,5.80
2018-03-31T17:15:08.692Z,5.78
2018-03-31T17:17:36.232Z,5.92
2018-03-31T17:20:03.620Z,5.87
2018-03-31T17:22:30.983Z,5.87
2018-03-31T17:24:58.303Z,5.80
2018-03-31T17:27:26.049Z,5.81
2018-03-31T17:29:53.425Z,5.68
2018-03-31T17:32:20.845Z,5.62
2018-03-31T17:34:48.218Z,5.66
2018-03-31T17:37:15.587Z,5.72
2018-03-31T17:39:42.985Z,5.59
2018-03-31T17:42:10.546Z,5.65
2018-03-31T17:44:38.202Z,5.66
2018-03-31T17:47:05.620Z,5.61
2018-03-31T17:49:33.019Z,5.42
2018-03-31T17:52:00.394Z,5.57
2018-03-31T17:54:27.769Z,5.45
2018-03-31T17:56:55.150Z,5.33
2018-03-31T17:59:22.760Z,5.35
2018-03-31T18:01:50.183Z,5.47
2018-03-31T18:04:17.602Z,5.34
2018-03-31T18:06:45.028Z,5.45
2018-03-31T18:09:12.411Z,5.50
2018-03-31T18:11:39.781Z,5.50
2018-03-31T18:14:07.156Z,5.48
2018-03-31T18:16:34.523Z,5.38
2018-03-31T18:19:01.864Z,5.13
2018-03-31T18:21:29.237Z,5.50
2018-03-31T18:23:56.588Z,5.28
2018-03-31T18:26:24.003Z,5.20
2018-03-31T18:28:51.418Z,5.21
2018-03-31T18:31:18.942Z,5.28
2018-03-31T18:33:46.532Z,5.28
2018-03-31T18:36:13.947Z,5.15
2018-03-31T18:38:41.321Z,5.15
2018-03-31T18:41:08.700Z,5.08
2018-03-31T18:43:36.056Z,5.02
2018-03-31T18:46:03.466Z,5.06
2018-03-31T18:48:30.906Z,5.15
2018-03-31T18:50:58.267Z,5.22
2018-03-31T18:53:25.632Z,5.18
2018-03-31T18:55:53.027Z,5.21
2018-03-31T18:58:20.422Z,5.19
2018-03-31T19:00:47.839Z,5.04
2018-03-31T19:03:15.221Z,5.11
2018-03-31T19:05:42.626Z,5.18
2018-03-31T19:08:10.223Z,4.99
2018-03-31T19:10:37.689Z,5.08
2018-03-31T19:13:05.140Z,5.03
2018-03-31T19:15:32.505Z,5.13
2018-03-31T19:17:59.868Z,5.15
2018-03-31T19:20:27.278Z,5.13
2018-03-31T19:22:54.843Z,5.06
2018-03-31T19:25:26.511Z,5.01
2018-03-31T19:27:53.904Z,4.96
2018-03-31T19:30:25.487Z,4.92
2018-03-31T19:32:52.851Z,4.89
2018-03-31T19:35:20.224Z,4.99
2018-03-31T19:37:47.734Z,4.80
2018-03-31T19:40:15.094Z,4.76
2018-03-31T19:42:42.501Z,4.82
2018-03-31T19:45:09.907Z,4.78
2018-03-31T19:47:37.269Z,4.64
2018-03-31T19:50:04.914Z,4.58
2018-03-31T19:52:32.309Z,4.69
2018-03-31T19:54:59.693Z,4.56
2018-03-31T19:57:27.069Z,4.46
2018-03-31T19:59:54.414Z,4.29
2018-03-31T20:02:21.800Z,4.42
2018-03-31T20:04:49.270Z,4.41
2018-03-31T20:07:16.801Z,4.26
2018-03-31T20:09:44.176Z,4.02
2018-03-31T20:12:11.581Z,4.03
2018-03-31T20:14:38.962Z,4.26
2018-03-31T20:17:06.749Z,4.18
2018-03-31T20:19:39.853Z,4.04
2018-03-31T20:22:07.305Z,4.13
2018-03-31T20:24:34.744Z,4.19
2018-03-31T20:27:02.125Z,4.09
2018-03-31T20:29:29.962Z,4.01
2018-03-31T20:31:57.372Z,3.89
2018-03-31T20:34:25.700Z,4.13
2018-03-31T20:36:53.113Z,4.02
2018-03-31T20:39:20.468Z,3.99
2018-03-31T20:41:47.882Z,4.08
2018-03-31T20:44:15.225Z,4.01
2018-03-31T20:46:42.748Z,3.95
2018-03-31T20:49:10.094Z,3.98
2018-03-31T20:51:37.558Z,3.90
2018-03-31T20:54:04.925Z,4.03
2018-03-31T20:56:32.423Z,3.95
2018-03-31T20:58:59.745Z,3.84
2018-03-31T21:01:27.154Z,3.86
2018-03-31T21:03:54.569Z,3.97
2018-03-31T21:06:21.952Z,3.78
2018-03-31T21:08:49.314Z,3.81
2018-03-31T21:11:16.896Z,3.72
2018-03-31T21:13:44.261Z,3.60
2018-03-31T21:16:11.637Z,3.68
2018-03-31T21:18:39.181Z,3.54
2018-03-31T21:21:06.667Z,3.56
2018-03-31T21:23:34.020Z,3.70
2018-03-31T21:26:01.497Z,3.66
2018-03-31T21:28:28.861Z,3.62
2018-03-31T21:30:56.258Z,3.60
2018-03-31T21:33:23.617Z,3.56
2018-03-31T21:35:51.012Z,3.48
2018-03-31T21:38:18.409Z,3.48
2018-03-31T21:40:46.002Z,3.49
2018-03-31T21:43:13.360Z,3.27
2018-03-31T21:45:40.855Z,3.35
2018-03-31T21:48:08.441Z,3.27
2018-03-31T21:50:36.174Z,3.16
2018-03-31T21:53:03.554Z,3.09
2018-03-31T21:55:30.939Z,3.25
2018-03-31T21:57:58.272Z,3.40
2018-03-31T22:00:29.406Z,3.07
2018-03-31T22:02:56.889Z,3.11
2018-03-31T22:05:24.300Z,3.04
2018-03-31T22:07:51.697Z,3.15
2018-03-31T22:10:19.148Z,3.29
2018-03-31T22:12:46.578Z,3.27
2018-03-31T22:15:19.226Z,3.14
2018-03-31T22:17:46.639Z,3.22
2018-03-31T22:20:13.992Z,3.04
2018-03-31T22:22:40.741Z,2.97
2018-03-31T22:25:08.124Z,3.08
2018-03-31T22:27:35.592Z,3.10
2018-03-31T22:30:03.506Z,3.21
2018-03-31T22:32:30.880Z,3.13
2018-03-31T22:34:58.207Z,3.06
2018-03-31T22:37:25.636Z,3.07
2018-03-31T22:39:52.984Z,3.11
2018-03-31T22:42:20.570Z,3.01
2018-03-31T22:44:47.967Z,2.95
2018-03-31T22:47:15.338Z,2.96
2018-03-31T22:49:42.950Z,2.96
2018-03-31T22:52:10.317Z,2.93
2018-03-31T22:54:37.793Z,2.92
2018-03-31T22:57:05.209Z,2.75
2018-03-31T22:59:32.969Z,2.73
2018-03-31T23:02:00.378Z,2.96
2018-03-31T23:04:27.769Z,2.99
2018-03-31T23:06:55.147Z,2.91
2018-03-31T23:09:22.558Z,2.75
2018-03-31T23:11:50.184Z,2.80
2018-03-31T23:14:17.596Z,2.68
2018-03-31T23:16:44.986Z,2.75
2018-03-31T23:19:12.379Z,2.58
2018-03-31T23:21:39.750Z,2.82
2018-03-31T23:24:07.130Z,2.78
2018-03-31T23:26:34.495Z,2.67
2018-03-31T23:29:02.115Z,2.66
2018-03-31T23:31:29.464Z,2.71
2018-03-31T23:33:56.804Z,2.75
2018-03-31T23:36:24.162Z,2.75
2018-03-31T23:38:51.496Z,2.68
2018-03-31T23:41:18.844Z,2.71
2018-03-31T23:43:46.219Z,2.53
2018-03-31T23:46:13.651Z,2.61
2018-03-31T23:48:41.127Z,2.54
2018-03-31T23:51:08.491Z,2.47
2018-03-31T23:53:35.828Z,2.76
2018-03-31T23:56:03.234Z,2.63
2018-03-31T23:58:30.577Z,2.50
